Time;durP1;ratioP1;P1;durP2;ratioP2;P2;SDS_P1;SDS_P2;PMS_P1;PMS_P2;Temp;Humidity;BMP_temperature;BMP_pressure;BME280_temperature;BME280_humidity;BME280_pressure;Samples;Min_cycle;Max_cycle;Signal;HPM_P1;HPM_P2
2023/08/13 00:01:29;;;;;;;4.35;1.27;;;;;;;17.70;69.88;101611.78;4930051;29;20235;-92
2023/08/13 00:03:54;;;;;;;3.85;1.20;;;;;;;17.66;70.01;101615.47;4940586;29;20031;-92
2023/08/13 00:06:20;;;;;;;3.95;1.17;;;;;;;17.65;70.29;101610.28;4936236;29;20476;-93
2023/08/13 00:08:45;;;;;;;3.95;1.20;;;;;;;17.64;70.02;101616.47;4935894;29;20111;-94
2023/08/13 00:11:11;;;;;;;3.67;1.10;;;;;;;17.62;69.82;101618.31;4951885;29;20035;-91
2023/08/13 00:13:37;;;;;;;5.00;1.30;;;;;;;17.59;70.59;101612.25;4941803;29;20058;-92
2023/08/13 00:16:03;;;;;;;3.88;1.30;;;;;;;17.58;71.24;101609.69;4937129;29;20028;-94
2023/08/13 00:18:29;;;;;;;6.55;1.40;;;;;;;17.55;70.65;101609.81;4937138;29;20030;-93
2023/08/13 00:20:54;;;;;;;5.20;1.20;;;;;;;17.51;70.53;101610.88;4936492;29;20035;-93
2023/08/13 00:23:19;;;;;;;4.13;1.13;;;;;;;17.50;70.76;101606.53;4936749;29;20115;-94
2023/08/13 00:25:45;;;;;;;4.55;1.42;;;;;;;17.47;71.04;101607.53;4936276;29;20046;-93
2023/08/13 00:28:10;;;;;;;5.85;1.30;;;;;;;17.45;71.32;101602.31;4936394;29;20027;-93
2023/08/13 00:30:35;;;;;;;6.03;1.27;;;;;;;17.43;71.02;101601.50;4936192;29;20078;-92
2023/08/13 00:33:00;;;;;;;5.40;1.30;;;;;;;17.42;71.65;101604.22;4936873;29;20490;-93
2023/08/13 00:35:26;;;;;;;4.10;1.30;;;;;;;17.39;72.18;101599.97;4921183;29;20028;-93
2023/08/13 00:37:51;;;;;;;5.28;1.23;;;;;;;17.38;71.62;101600.88;4937008;29;20477;-93
2023/08/13 00:40:16;;;;;;;4.38;1.50;;;;;;;17.36;71.80;101609.72;4941982;29;20039;-95
2023/08/13 00:42:42;;;;;;;3.72;1.10;;;;;;;17.34;72.23;101606.31;4935898;29;20034;-93
2023/08/13 00:45:07;;;;;;;5.07;1.20;;;;;;;17.32;72.33;101603.75;4935546;29;20028;-94
2023/08/13 00:47:34;;;;;;;4.72;1.10;;;;;;;17.29;72.32;101604.75;4934860;29;20083;-93
2023/08/13 00:50:00;;;;;;;4.10;1.30;;;;;;;17.26;72.48;101604.88;4935226;29;20051;-93
2023/08/13 00:52:25;;;;;;;7.13;1.50;;;;;;;17.23;72.53;101609.41;4934716;29;20110;-93
2023/08/13 00:54:51;;;;;;;3.80;1.20;;;;;;;17.19;73.05;101600.78;4935591;29;20038;-94
2023/08/13 00:57:16;;;;;;;5.65;1.48;;;;;;;17.12;73.26;101599.34;4934839;29;20023;-92
2023/08/13 00:59:42;;;;;;;4.30;1.40;;;;;;;17.06;73.17;101599.56;4935062;29;20055;-94
2023/08/13 01:02:08;;;;;;;4.80;1.50;;;;;;;17.01;74.01;101594.50;4935043;29;20494;-94
2023/08/13 01:04:33;;;;;;;4.03;1.00;;;;;;;16.98;74.11;101589.38;4933834;29;20079;-95
2023/08/13 01:07:11;;;;;;;5.43;1.38;;;;;;;16.97;74.02;101599.03;4918452;29;20467;-93
2023/08/13 01:09:37;;;;;;;2.95;1.30;;;;;;;16.94;74.29;101598.25;4916100;29;20028;-94
2023/08/13 01:12:13;;;;;;;4.00;1.38;;;;;;;16.90;74.10;101597.53;4939912;29;20036;-93
2023/08/13 01:15:07;;;;;;;3.20;1.17;;;;;;;16.92;74.34;101600.09;4934586;29;20412;-92
2023/08/13 01:17:35;;;;;;;4.50;1.30;;;;;;;16.88;74.59;101602.00;4935089;29;20519;-94
2023/08/13 01:20:03;;;;;;;3.53;1.42;;;;;;;16.88;75.60;101598.53;4934549;29;20047;-93
2023/08/13 01:22:29;;;;;;;4.15;1.50;;;;;;;16.84;75.04;101593.38;4935434;29;20031;-93
2023/08/13 01:24:56;;;;;;;3.47;1.38;;;;;;;16.84;75.35;101592.50;4933739;29;20486;-93
2023/08/13 01:27:27;;;;;;;4.63;1.65;;;;;;;16.79;75.24;101592.72;4935399;29;20399;-93
2023/08/13 01:30:01;;;;;;;5.30;1.50;;;;;;;16.76;75.45;101589.34;4935368;29;20036;-94
2023/08/13 01:32:33;;;;;;;5.90;1.52;;;;;;;16.72;75.73;101593.00;4934330;29;20035;-94
2023/08/13 01:34:59;;;;;;;3.92;1.33;;;;;;;16.67;75.64;101601.94;4934440;29;20027;-94
2023/08/13 01:37:25;;;;;;;3.75;1.13;;;;;;;16.63;75.93;101591.59;4933716;29;20107;-93
2023/08/13 01:39:50;;;;;;;5.10;1.60;;;;;;;16.62;76.35;101603.03;4933167;29;20035;-94
2023/08/13 01:42:15;;;;;;;4.00;1.38;;;;;;;16.60;76.15;101599.59;4936600;29;20114;-93
2023/08/13 01:44:41;;;;;;;5.32;1.60;;;;;;;16.57;76.39;101600.59;4932531;29;20494;-93
2023/08/13 01:47:06;;;;;;;5.20;1.40;;;;;;;16.56;76.24;101605.91;4933766;29;20032;-96
2023/08/13 01:49:32;;;;;;;6.45;1.38;;;;;;;16.54;76.24;101601.56;4934005;29;20065;-93
2023/08/13 01:51:57;;;;;;;3.88;1.17;;;;;;;16.54;76.01;101601.56;4934435;29;20039;-93
2023/08/13 01:54:23;;;;;;;4.72;1.23;;;;;;;16.53;75.99;101605.13;4933895;29;20027;-94
2023/08/13 01:56:48;;;;;;;4.85;1.23;;;;;;;16.51;76.25;101609.56;4934840;29;20031;-94
2023/08/13 01:59:14;;;;;;;4.32;1.33;;;;;;;16.51;76.24;101599.06;4933499;29;20368;-94
2023/08/13 02:01:39;;;;;;;3.78;1.10;;;;;;;16.52;76.43;101613.91;4933687;29;20040;-93
2023/08/13 02:04:05;;;;;;;5.85;1.33;;;;;;;16.54;76.58;101621.72;4933575;29;20039;-94
2023/08/13 02:06:32;;;;;;;4.22;1.20;;;;;;;16.54;76.94;101612.06;4934162;29;20024;-87
2023/08/13 02:08:58;;;;;;;4.05;1.23;;;;;;;16.56;77.13;101611.16;4953457;29;20039;-92
2023/08/13 02:11:23;;;;;;;5.30;1.23;;;;;;;16.55;76.65;101602.41;4958208;29;20079;-91
2023/08/13 02:13:49;;;;;;;4.15;1.20;;;;;;;16.54;76.93;101601.56;4951700;29;20020;-92
2023/08/13 02:16:14;;;;;;;4.03;1.05;;;;;;;16.54;77.24;101601.56;4946105;29;20115;-93
2023/08/13 02:18:39;;;;;;;3.95;1.00;;;;;;;16.54;77.10;101609.44;4935375;29;20392;-92
2023/08/13 02:21:05;;;;;;;5.40;1.10;;;;;;;16.54;76.93;101603.31;4935553;29;20372;-94
2023/08/13 02:23:30;;;;;;;4.22;1.27;;;;;;;16.53;77.46;101598.97;4936494;29;20040;-93
2023/08/13 02:25:55;;;;;;;3.17;1.00;;;;;;;16.52;77.93;101603.41;4935198;29;20023;-93
2023/08/13 02:28:20;;;;;;;3.85;1.15;;;;;;;16.51;77.90;101600.81;4934735;29;20038;-92
2023/08/13 02:30:48;;;;;;;2.92;0.90;;;;;;;16.50;77.60;101591.22;4934666;29;20459;-92
2023/08/13 02:33:13;;;;;;;3.10;1.00;;;;;;;16.49;77.93;101597.38;4933063;29;20031;-91
2023/08/13 02:35:39;;;;;;;5.28;1.25;;;;;;;16.49;77.50;101600.00;4934406;29;20028;-93
2023/08/13 02:38:04;;;;;;;4.00;1.10;;;;;;;16.49;78.10;101587.75;4937316;29;20060;-94
2023/08/13 02:40:29;;;;;;;4.18;1.30;;;;;;;16.48;78.00;101586.03;4936427;29;20483;-94
2023/08/13 02:42:54;;;;;;;5.32;1.20;;;;;;;16.46;78.50;101590.50;4937507;29;20444;-92
2023/08/13 02:45:20;;;;;;;5.07;1.15;;;;;;;16.45;78.44;101588.78;4939033;29;20054;-93
2023/08/13 02:47:45;;;;;;;3.92;1.00;;;;;;;16.44;78.52;101584.44;4938250;29;20360;-93
2023/08/13 02:50:10;;;;;;;3.08;1.05;;;;;;;16.44;78.50;101587.06;4937604;29;20501;-92
2023/08/13 02:52:36;;;;;;;3.97;1.05;;;;;;;16.44;78.90;101600.19;4950429;29;20063;-93
2023/08/13 02:55:01;;;;;;;3.85;1.13;;;;;;;16.42;79.12;101588.88;4938045;29;20030;-92
2023/08/13 02:57:26;;;;;;;4.43;1.13;;;;;;;16.40;79.17;101582.84;4937204;29;20046;-92
2023/08/13 02:59:54;;;;;;;3.63;1.02;;;;;;;16.39;79.34;101591.66;4937615;29;20028;-92
2023/08/13 03:02:19;;;;;;;3.65;1.00;;;;;;;16.38;79.25;101584.69;4920460;29;20028;-94
2023/08/13 03:04:44;;;;;;;5.47;1.05;;;;;;;16.37;79.40;101588.22;4938142;29;20024;-93
2023/08/13 03:07:09;;;;;;;6.05;1.20;;;;;;;16.37;79.23;101588.22;4936867;29;20024;-93
2023/08/13 03:09:35;;;;;;;5.00;1.30;;;;;;;16.34;79.48;101581.31;4935539;29;20035;-93
2023/08/13 03:12:00;;;;;;;3.72;1.13;;;;;;;16.32;79.56;101580.50;4937528;29;20031;-94
2023/08/13 03:14:25;;;;;;;4.32;1.40;;;;;;;16.30;79.86;101586.75;4936538;29;20039;-94
2023/08/13 03:16:51;;;;;;;4.22;1.00;;;;;;;16.26;79.80;101585.13;4936857;29;20116;-92
2023/08/13 03:19:16;;;;;;;4.30;1.40;;;;;;;16.21;80.06;101588.81;4941350;29;20467;-95
2023/08/13 03:21:41;;;;;;;3.30;1.20;;;;;;;16.20;80.59;101592.34;4939692;29;20097;-92
2023/08/13 03:24:07;;;;;;;5.90;1.30;;;;;;;16.19;80.65;101585.38;4936819;29;20039;-92
2023/08/13 03:26:32;;;;;;;4.35;1.00;;;;;;;16.17;80.19;101589.84;4937069;29;20043;-93
2023/08/13 03:28:57;;;;;;;5.40;1.30;;;;;;;16.13;80.64;101590.84;4938838;29;20047;-93
2023/08/13 03:31:22;;;;;;;6.70;1.35;;;;;;;16.11;80.66;101581.34;4935823;29;20031;-92
2023/08/13 03:33:48;;;;;;;5.30;1.02;;;;;;;16.09;80.59;101586.63;4936733;29;20079;-94
2023/08/13 03:36:13;;;;;;;2.88;1.05;;;;;;;16.07;81.03;101585.81;4937209;29;20055;-95
2023/08/13 03:38:38;;;;;;;4.43;1.30;;;;;;;16.05;81.00;101587.69;4937143;29;20030;-93
2023/08/13 03:41:03;;;;;;;3.38;1.17;;;;;;;16.05;81.29;101592.94;4942420;29;20419;-92
2023/08/13 03:43:29;;;;;;;4.80;1.20;;;;;;;16.05;81.46;101588.53;4936323;29;20075;-92
2023/08/13 03:45:54;;;;;;;3.92;1.02;;;;;;;16.01;81.42;101586.06;4936590;29;20024;-93
2023/08/13 03:48:19;;;;;;;4.25;1.40;;;;;;;15.99;81.72;101586.09;4936474;29;20044;-94
2023/08/13 03:50:45;;;;;;;5.32;1.40;;;;;;;15.93;81.99;101584.56;4939335;29;20356;-94
2023/08/13 03:53:11;;;;;;;4.07;1.17;;;;;;;15.89;81.96;101582.97;4936333;29;20039;-94
2023/08/13 03:55:37;;;;;;;6.07;1.20;;;;;;;15.87;82.54;101586.56;4936642;29;20027;-93
2023/08/13 03:58:03;;;;;;;6.03;1.60;;;;;;;15.84;82.27;101589.25;4936710;29;20062;-92
2023/08/13 04:00:29;;;;;;;5.28;1.38;;;;;;;15.80;82.15;101592.94;4936092;29;20032;-93
2023/08/13 04:02:55;;;;;;;6.72;1.30;;;;;;;15.77;82.57;101593.88;4936616;29;20151;-95
2023/08/13 04:05:20;;;;;;;4.82;1.10;;;;;;;15.74;82.69;101589.59;4935531;29;20118;-93
2023/08/13 04:07:45;;;;;;;3.20;1.48;;;;;;;15.71;83.18;101594.09;4936416;29;20050;-93
2023/08/13 04:10:11;;;;;;;3.63;1.13;;;;;;;15.67;82.99;101589.88;4951414;29;20368;-93
2023/08/13 04:12:36;;;;;;;4.07;1.30;;;;;;;15.65;83.12;101594.31;4937173;29;20028;-93
2023/08/13 04:15:03;;;;;;;5.03;1.30;;;;;;;15.66;82.92;101596.03;4935417;29;20027;-94
2023/08/13 04:17:28;;;;;;;4.20;1.23;;;;;;;15.63;82.69;101597.84;4936258;29;20039;-93
2023/08/13 04:19:53;;;;;;;2.28;1.15;;;;;;;15.63;82.88;101599.59;4949024;29;20023;-93
2023/08/13 04:22:18;;;;;;;4.20;1.45;;;;;;;15.59;83.35;101600.63;4936118;29;20121;-93
2023/08/13 04:24:50;;;;;;;4.45;1.48;;;;;;;15.56;83.13;101600.72;4936399;29;20447;-92
2023/08/13 04:27:15;;;;;;;;;;;;;;;15.60;81.04;101603.19;4934272;29;20024;-93
2023/08/13 04:29:40;;;;;;;4.95;1.42;;;;;;;15.53;83.17;101593.84;4937087;29;19914;-93
2023/08/13 04:32:06;;;;;;;4.80;1.67;;;;;;;15.48;83.33;101590.50;4934683;29;20020;-92
2023/08/13 04:34:31;;;;;;;4.82;1.60;;;;;;;15.47;83.94;101591.41;4936893;29;20032;-94
2023/08/13 04:36:56;;;;;;;4.97;1.60;;;;;;;15.44;83.94;101591.50;4936304;29;20020;-92
2023/08/13 04:39:22;;;;;;;4.90;1.75;;;;;;;15.41;84.18;101595.09;4934900;29;20495;-92
2023/08/13 04:41:47;;;;;;;5.28;1.45;;;;;;;15.40;84.17;101597.75;4935050;29;20035;-93
2023/08/13 04:44:12;;;;;;;6.35;1.80;;;;;;;15.37;84.89;101595.28;4937859;29;20487;-92
2023/08/13 04:46:37;;;;;;;6.18;1.70;;;;;;;15.37;84.66;101600.53;4935263;29;20023;-93
2023/08/13 04:49:03;;;;;;;5.65;1.80;;;;;;;15.35;84.47;101597.94;4935119;29;20044;-93
2023/08/13 04:51:28;;;;;;;4.03;1.55;;;;;;;15.35;84.96;101597.94;4918104;29;20031;-94
2023/08/13 04:53:54;;;;;;;3.30;1.42;;;;;;;15.34;84.67;101598.84;4935317;29;20039;-95
2023/08/13 04:56:19;;;;;;;4.75;1.50;;;;;;;15.37;85.11;101600.53;4936138;29;20028;-93
2023/08/13 04:58:45;;;;;;;6.15;1.88;;;;;;;15.35;85.33;101597.09;4936871;29;20075;-93
2023/08/13 05:01:10;;;;;;;5.70;1.80;;;;;;;15.35;85.20;101602.34;4933885;29;20027;-92
2023/08/13 05:03:37;;;;;;;5.20;1.65;;;;;;;15.36;85.22;101601.44;4935885;29;20039;-92
2023/08/13 05:06:02;;;;;;;6.53;1.88;;;;;;;15.35;85.48;101600.56;4935301;29;20059;-93
2023/08/13 05:08:28;;;;;;;7.35;1.90;;;;;;;15.35;86.18;101602.34;4936369;29;20115;-94
2023/08/13 05:10:53;;;;;;;6.00;1.75;;;;;;;15.32;85.81;101593.66;4935316;29;20162;-93
2023/08/13 05:13:18;;;;;;;4.63;2.00;;;;;;;15.32;86.35;101598.91;4934045;29;20043;-93
2023/08/13 05:15:44;;;;;;;4.88;1.90;;;;;;;15.35;86.17;101597.09;4938851;29;20502;-92
2023/08/13 05:18:10;;;;;;;7.22;2.08;;;;;;;15.37;86.29;101595.28;4943244;29;20027;-93
2023/08/13 05:20:35;;;;;;;5.50;1.92;;;;;;;15.39;86.16;101593.44;4935363;29;20118;-93
2023/08/13 05:23:00;;;;;;;7.63;2.13;;;;;;;15.42;86.57;101598.56;4934102;29;20472;-94
2023/08/13 05:25:26;;;;;;;3.92;1.85;;;;;;;15.42;87.02;101593.34;4937213;29;20039;-93
2023/08/13 05:27:51;;;;;;;7.35;2.00;;;;;;;15.45;86.62;101593.22;4942466;29;20027;-91
2023/08/13 05:30:16;;;;;;;4.50;1.92;;;;;;;15.45;86.49;101599.34;4942064;29;20031;-92
2023/08/13 05:32:42;;;;;;;6.50;2.20;;;;;;;15.45;86.72;101598.47;4934590;29;20046;-93
2023/08/13 05:35:07;;;;;;;4.90;1.80;;;;;;;15.46;86.77;101600.19;4933309;29;20036;-93
2023/08/13 05:37:33;;;;;;;5.70;1.80;;;;;;;15.47;87.21;101601.91;4935245;29;20028;-93
2023/08/13 05:39:58;;;;;;;5.43;2.13;;;;;;;15.46;87.02;101605.44;4935280;29;20040;-93
2023/08/13 05:42:23;;;;;;;6.10;2.40;;;;;;;15.47;86.98;101613.25;4935782;29;20044;-93
2023/08/13 05:44:49;;;;;;;4.50;2.03;;;;;;;15.49;87.24;101605.34;4934226;29;20067;-92
2023/08/13 05:47:14;;;;;;;7.43;2.20;;;;;;;15.48;87.30;101608.88;4941343;29;20028;-94
2023/08/13 05:49:39;;;;;;;6.63;2.38;;;;;;;15.47;87.36;101613.25;4934232;29;20055;-93
2023/08/13 05:52:05;;;;;;;5.82;2.20;;;;;;;15.48;87.30;101619.34;4933112;29;20036;-93
2023/08/13 05:54:30;;;;;;;6.43;1.90;;;;;;;15.51;87.44;101619.25;4934834;29;20080;-91
2023/08/13 05:56:56;;;;;;;5.82;1.92;;;;;;;15.55;87.56;101615.59;4935193;29;20040;-92
2023/08/13 05:59:22;;;;;;;6.63;2.10;;;;;;;15.59;87.75;101622.47;4915905;29;20041;-93
2023/08/13 06:01:47;;;;;;;5.70;2.35;;;;;;;15.63;87.76;101617.94;4932429;29;20079;-92
2023/08/13 06:04:12;;;;;;;4.53;1.70;;;;;;;15.66;87.51;101617.84;4933463;29;20032;-93
2023/08/13 06:06:38;;;;;;;5.88;1.95;;;;;;;15.72;88.24;101627.28;4933720;29;20047;-93
2023/08/13 06:09:03;;;;;;;6.57;1.95;;;;;;;15.77;87.16;101625.34;4927737;29;21779;-92
2023/08/13 06:11:29;;;;;;;7.53;2.10;;;;;;;15.82;88.33;101626.06;4940115;28;20032;-95
2023/08/13 06:13:54;;;;;;;4.75;1.75;;;;;;;15.88;88.27;101627.63;4942767;29;20020;-93
2023/08/13 06:16:20;;;;;;;3.10;1.73;;;;;;;15.93;87.97;101625.72;4941413;29;20114;-93
2023/08/13 06:18:45;;;;;;;4.03;1.90;;;;;;;15.99;87.71;101625.47;4956334;29;20030;-92
2023/08/13 06:21:10;;;;;;;8.02;2.17;;;;;;;16.03;87.88;101628.88;4943807;29;20035;-92
2023/08/13 06:23:36;;;;;;;6.45;1.80;;;;;;;16.07;87.14;101630.44;4939169;29;20024;-93
2023/08/13 06:26:01;;;;;;;4.15;1.73;;;;;;;16.10;87.29;101630.34;4942124;29;20031;-93
2023/08/13 06:28:26;;;;;;;6.95;2.00;;;;;;;16.14;87.08;101621.44;4931112;29;20031;-94
2023/08/13 06:30:51;;;;;;;4.32;1.75;;;;;;;16.22;87.72;101621.16;4938930;29;20036;-94
2023/08/13 06:33:17;;;;;;;6.97;1.80;;;;;;;16.27;87.33;101628.88;4948344;29;20059;-84
2023/08/13 06:35:46;;;;;;;7.90;2.00;;;;;;;16.34;87.66;101627.72;4960404;29;20039;-91
2023/08/13 06:38:15;;;;;;;5.90;1.63;;;;;;;16.39;87.52;101624.00;4942077;29;20030;-92
2023/08/13 06:40:40;;;;;;;3.92;1.70;;;;;;;16.48;87.20;101625.44;4936257;29;20114;-94
2023/08/13 06:43:06;;;;;;;7.25;1.83;;;;;;;16.57;87.11;101626.00;4937084;29;20183;-93
2023/08/13 06:45:31;;;;;;;6.40;1.85;;;;;;;16.64;87.52;101633.59;4938172;29;20369;-90
2023/08/13 06:47:57;;;;;;;6.95;1.73;;;;;;;16.70;86.85;101619.38;4936753;29;20472;-93
2023/08/13 06:50:22;;;;;;;5.55;1.73;;;;;;;16.73;86.60;101627.13;4936244;29;20047;-93
2023/08/13 06:52:47;;;;;;;4.15;1.70;;;;;;;16.76;86.17;101626.16;4948485;29;20031;-93
2023/08/13 06:55:13;;;;;;;7.50;1.75;;;;;;;16.81;86.03;101625.03;4937035;29;20566;-93
2023/08/13 06:57:38;;;;;;;4.78;1.60;;;;;;;16.88;86.02;101632.69;4937669;29;20027;-93
2023/08/13 07:00:05;;;;;;;5.45;1.65;;;;;;;16.93;85.76;101630.72;4939241;29;20551;-93
2023/08/13 07:02:31;;;;;;;5.78;1.83;;;;;;;16.95;85.25;101616.66;4937514;29;20167;-93
2023/08/13 07:04:56;;;;;;;4.72;1.73;;;;;;;17.03;85.61;101624.22;4936242;29;20105;-94
2023/08/13 07:07:21;;;;;;;4.60;1.67;;;;;;;17.09;87.13;101623.94;4938085;29;20027;-92
2023/08/13 07:09:46;;;;;;;6.53;1.90;;;;;;;17.15;86.17;101617.63;4935557;29;20023;-94
2023/08/13 07:12:12;;;;;;;5.68;1.70;;;;;;;17.20;85.39;101620.03;4937520;29;20046;-94
2023/08/13 07:14:37;;;;;;;6.03;1.80;;;;;;;17.25;86.09;101618.09;4937014;29;20072;-94
2023/08/13 07:17:02;;;;;;;4.85;1.83;;;;;;;17.32;85.66;101624.78;4938206;29;20034;-93
2023/08/13 07:19:29;;;;;;;6.35;1.73;;;;;;;17.39;86.68;101621.00;4936299;29;20071;-93
2023/08/13 07:21:54;;;;;;;6.20;1.60;;;;;;;17.42;84.83;101618.22;4937407;29;20023;-92
2023/08/13 07:24:19;;;;;;;5.85;1.70;;;;;;;17.51;86.21;101608.22;4935685;29;20038;-93
2023/08/13 07:26:45;;;;;;;5.15;1.50;;;;;;;17.55;84.45;101604.56;4935279;29;20540;-92
2023/08/13 07:29:10;;;;;;;5.90;1.60;;;;;;;17.61;85.12;101609.53;4936691;29;20039;-93
2023/08/13 07:31:35;;;;;;;3.97;1.45;;;;;;;17.68;85.41;101607.50;4935812;29;20028;-92
2023/08/13 07:34:01;;;;;;;6.07;1.55;;;;;;;17.71;84.00;101608.22;4936902;29;20057;-93
2023/08/13 07:36:26;;;;;;;5.95;1.75;;;;;;;17.77;84.49;101603.59;4937466;29;20115;-93
2023/08/13 07:38:52;;;;;;;4.72;1.50;;;;;;;17.81;83.74;101611.31;4933727;29;20034;-94
2023/08/13 07:41:17;;;;;;;4.10;1.40;;;;;;;17.85;83.42;101614.66;4943645;29;20032;-94
2023/08/13 07:43:42;;;;;;;4.95;1.40;;;;;;;17.91;85.78;101611.78;4935575;29;20032;-93
2023/08/13 07:46:08;;;;;;;4.30;1.38;;;;;;;17.97;84.01;101614.09;4932171;29;20522;-94
2023/08/13 07:48:33;;;;;;;4.78;1.25;;;;;;;18.03;84.61;101611.25;4934122;29;20039;-92
2023/08/13 07:50:58;;;;;;;5.40;1.45;;;;;;;18.07;83.55;101611.94;4937834;29;20054;-94
2023/08/13 07:53:24;;;;;;;5.75;1.60;;;;;;;18.12;83.23;101614.38;4935681;29;20027;-94
2023/08/13 07:55:49;;;;;;;5.70;1.60;;;;;;;18.16;83.23;101611.56;4935188;29;20064;-88
2023/08/13 07:58:16;;;;;;;4.82;1.20;;;;;;;18.19;82.80;101610.53;4937215;29;20032;-93
2023/08/13 08:00:41;;;;;;;4.55;1.30;;;;;;;18.22;82.46;101613.03;4937947;29;20031;-93
2023/08/13 08:03:08;;;;;;;5.53;1.58;;;;;;;18.28;82.88;101614.53;4937672;29;20024;-94
2023/08/13 08:05:34;;;;;;;4.93;1.20;;;;;;;18.33;82.10;101612.56;4943010;29;20032;-90
2023/08/13 08:08:00;;;;;;;5.95;1.20;;;;;;;18.42;83.30;101606.00;4933531;29;20926;-92
2023/08/13 08:10:26;;;;;;;5.50;1.30;;;;;;;18.48;81.66;101608.34;4932347;29;20028;-93
2023/08/13 08:12:51;;;;;;;3.28;1.30;;;;;;;18.52;81.51;101609.91;4933837;29;20031;-95
2023/08/13 08:15:16;;;;;;;7.20;1.27;;;;;;;18.56;82.73;101610.59;4934354;29;20036;-94
2023/08/13 08:17:42;;;;;;;5.55;1.15;;;;;;;18.59;81.96;101602.56;4938943;29;20035;-95
2023/08/13 08:20:08;;;;;;;6.90;1.23;;;;;;;18.64;81.57;101604.03;4936924;29;20019;-91
2023/08/13 08:22:33;;;;;;;4.95;1.20;;;;;;;18.71;82.87;101604.59;4934108;29;20126;-94
2023/08/13 08:24:59;;;;;;;6.72;1.30;;;;;;;18.76;81.27;101607.88;4935403;29;20024;-94
2023/08/13 08:27:24;;;;;;;2.10;1.05;;;;;;;18.78;80.55;101610.47;4943043;29;20035;-95
2023/08/13 08:29:49;;;;;;;4.20;1.27;;;;;;;18.79;79.33;101606.88;4923044;29;20035;-93
2023/08/13 08:32:14;;;;;;;4.55;1.10;;;;;;;18.83;80.18;101608.44;4936342;29;20094;-93
2023/08/13 08:34:40;;;;;;;4.72;1.25;;;;;;;18.89;81.43;101610.78;4938015;29;20031;-93
2023/08/13 08:37:05;;;;;;;5.63;1.48;;;;;;;18.92;81.28;101607.13;4933709;29;20101;-88
2023/08/13 08:39:31;;;;;;;4.95;1.05;;;;;;;18.94;79.38;101614.09;4950872;28;20026;-94
2023/08/13 08:41:57;;;;;;;3.58;1.17;;;;;;;18.98;80.07;101608.66;4936900;29;20032;-91
2023/08/13 08:44:23;;;;;;;3.85;1.30;;;;;;;19.02;78.78;101610.22;4936765;29;20043;-93
2023/08/13 08:46:51;;;;;;;4.57;1.10;;;;;;;19.07;79.31;101608.22;4936234;29;20035;-93
2023/08/13 08:49:18;;;;;;;7.47;1.52;;;;;;;19.11;79.58;101602.69;4919565;29;20052;-94
2023/08/13 08:51:47;;;;;;;5.78;1.30;;;;;;;19.20;78.97;101608.47;4934766;29;20067;-92
2023/08/13 08:54:12;;;;;;;4.10;1.20;;;;;;;19.26;77.72;101609.00;4932619;29;20343;-93
2023/08/13 08:56:38;;;;;;;7.20;1.70;;;;;;;19.33;77.14;101598.13;4949485;29;20490;-92
2023/08/13 08:59:04;;;;;;;7.30;1.20;;;;;;;19.35;75.93;101597.13;4951401;29;20035;-94
2023/08/13 09:01:30;;;;;;;4.72;1.40;;;;;;;19.41;78.43;101594.16;5018695;23;20180;-93
2023/08/13 09:03:55;;;;;;;4.53;1.40;;;;;;;19.47;77.71;101590.34;4975402;28;20113;-91
2023/08/13 09:06:23;;;;;;;5.07;1.20;;;;;;;19.56;77.79;101587.25;4969474;28;20109;-93
2023/08/13 09:08:49;;;;;;;6.78;1.25;;;;;;;19.63;77.51;101586.94;4971405;28;20030;-92
2023/08/13 09:11:14;;;;;;;6.22;1.30;;;;;;;19.69;77.55;101583.97;4984251;28;20048;-94
2023/08/13 09:13:50;;;;;;;6.72;1.40;;;;;;;19.74;77.41;101587.22;4984832;28;20027;-92
2023/08/13 09:16:15;;;;;;;4.50;1.20;;;;;;;19.77;76.05;101579.16;4969834;28;20035;-91
2023/08/13 09:18:41;;;;;;;4.13;1.30;;;;;;;19.81;76.72;101572.75;4986571;28;20029;-92
2023/08/13 09:21:08;;;;;;;4.18;1.20;;;;;;;19.91;77.04;101574.94;4981848;28;20463;-89
2023/08/13 09:23:37;;;;;;;4.88;1.60;;;;;;;19.97;76.67;101574.63;4971633;28;20030;-92
2023/08/13 09:26:03;;;;;;;5.05;1.33;;;;;;;20.02;76.44;101570.78;4970810;28;20051;-93
2023/08/13 09:28:28;;;;;;;3.85;1.27;;;;;;;20.08;74.30;101571.38;4970827;28;20054;-92
2023/08/13 09:30:53;;;;;;;3.75;1.48;;;;;;;20.11;74.39;101573.84;4971351;28;20517;-92
2023/08/13 09:33:19;;;;;;;4.68;1.23;;;;;;;20.12;71.89;101565.88;4986051;28;20027;-91
2023/08/13 09:35:44;;;;;;;4.78;1.17;;;;;;;;;;4985311;28;20086;-88
2023/08/13 09:38:10;;;;;;;4.50;1.40;;;;;;;20.21;73.20;101566.28;4974638;28;20037;-91
2023/08/13 09:40:36;;;;;;;3.53;1.23;;;;;;;20.26;74.12;101556.31;4989418;28;20022;-90
2023/08/13 09:43:06;;;;;;;4.70;1.23;;;;;;;20.28;70.84;101550.00;4970113;28;20114;-89
2023/08/13 09:45:32;;;;;;;5.32;1.38;;;;;;;20.30;71.33;101547.28;4968024;28;20015;-92
2023/08/13 09:48:02;;;;;;;4.72;1.20;;;;;;;20.31;71.87;101549.00;4968768;28;20471;-89
2023/08/13 09:50:31;;;;;;;4.47;1.35;;;;;;;20.37;73.09;101545.16;4976097;28;20015;-90
2023/08/13 09:52:58;;;;;;;4.50;1.30;;;;;;;20.41;73.46;101542.25;4977697;28;20053;-90
2023/08/13 09:55:29;;;;;;;4.82;1.23;;;;;;;20.44;71.34;101536.78;4980558;28;20034;-91
2023/08/13 09:57:58;;;;;;;6.30;1.60;;;;;;;20.50;73.13;101529.44;4982381;28;20105;-90
2023/08/13 10:00:24;;;;;;;5.05;1.38;;;;;;;20.54;72.38;101528.31;4960924;28;20037;-91
2023/08/13 10:02:51;;;;;;;4.75;1.30;;;;;;;20.58;72.07;101529.88;4979270;28;20050;-94
2023/08/13 10:05:16;;;;;;;5.60;1.35;;;;;;;20.60;69.69;101530.63;4988495;28;20088;-93
2023/08/13 10:07:43;;;;;;;5.13;1.55;;;;;;;20.60;69.47;101528.00;4987441;28;20454;-93
2023/08/13 10:10:09;;;;;;;5.30;1.70;;;;;;;20.62;69.04;101526.13;4988333;28;20101;-90
2023/08/13 10:12:35;;;;;;;5.88;1.50;;;;;;;20.66;66.32;101527.66;4980647;28;20106;-93
2023/08/13 10:15:00;;;;;;;3.65;1.35;;;;;;;20.70;68.25;101523.03;4960908;28;20029;-93
2023/08/13 10:17:27;;;;;;;6.47;1.50;;;;;;;20.71;68.40;101520.28;4968226;28;20035;-91
2023/08/13 10:19:54;;;;;;;6.28;1.27;;;;;;;20.73;69.08;101528.97;4969602;28;20022;-91
2023/08/13 10:22:30;;;;;;;5.50;1.40;;;;;;;20.76;69.21;101534.13;4969331;28;20029;-92
2023/08/13 10:24:55;;;;;;;4.50;1.15;;;;;;;20.80;66.74;101534.78;4970840;28;20039;-93
2023/08/13 10:27:22;;;;;;;5.90;1.30;;;;;;;20.86;69.05;101528.28;4972157;28;20022;-92
2023/08/13 10:29:49;;;;;;;5.60;1.58;;;;;;;20.90;67.83;101529.81;4981931;28;20091;-95
2023/08/13 10:32:16;;;;;;;4.85;1.50;;;;;;;20.95;65.70;101534.84;4974928;28;20026;-96
2023/08/13 10:34:50;;;;;;;3.75;1.63;;;;;;;21.01;65.78;101531.84;4966520;28;20030;-92
2023/08/13 10:37:20;;;;;;;6.85;1.90;;;;;;;21.01;65.73;101522.09;4952304;28;20447;-94
2023/08/13 10:40:08;;;;;;;4.15;1.13;;;;;;;21.02;67.91;101517.66;4969022;28;20030;-86
2023/08/13 10:42:34;;;;;;;3.78;1.10;;;;;;;20.98;66.20;101521.44;4977647;28;20042;-90
2023/08/13 10:45:04;;;;;;;4.40;1.20;;;;;;;20.94;65.82;101523.41;4990145;28;20035;-94
2023/08/13 10:47:53;;;;;;;4.55;1.25;;;;;;;20.90;66.38;101514.81;4971780;28;20022;-94
2023/08/13 10:50:39;;;;;;;4.45;1.10;;;;;;;20.84;66.42;101519.59;4967743;28;20436;-93
2023/08/13 10:53:22;;;;;;;4.43;1.13;;;;;;;20.76;65.56;101523.56;4962899;28;20022;-94
2023/08/13 10:55:50;;;;;;;3.95;1.20;;;;;;;20.77;68.07;101514.69;4962451;28;20039;-93
2023/08/13 10:58:26;;;;;;;4.32;1.30;;;;;;;20.82;69.45;101510.91;4969909;28;20105;-94
2023/08/13 11:00:57;;;;;;;5.22;1.50;;;;;;;20.88;68.26;101507.91;4966557;28;20023;-92
2023/08/13 11:03:25;;;;;;;4.13;1.30;;;;;;;20.93;69.26;101506.69;4974975;28;21683;-92
2023/08/13 11:05:52;;;;;;;3.80;1.20;;;;;;;20.98;64.85;101506.44;4971951;28;20113;-93
2023/08/13 11:08:24;;;;;;;5.32;1.40;;;;;;;21.02;67.18;101504.44;4969338;28;20038;-93
2023/08/13 11:10:51;;;;;;;5.85;1.30;;;;;;;21.04;67.67;101500.75;4966073;28;20129;-91
2023/08/13 11:13:18;;;;;;;5.70;1.40;;;;;;;21.08;65.46;101502.28;4968015;28;20026;-91
2023/08/13 11:15:51;;;;;;;5.68;1.40;;;;;;;21.13;65.20;101494.06;4971842;28;20548;-91
2023/08/13 11:18:17;;;;;;;5.30;1.55;;;;;;;21.20;63.03;101500.69;4980765;28;20082;-93
2023/08/13 11:20:44;;;;;;;4.85;1.20;;;;;;;21.27;63.75;101506.47;4974319;28;20081;-91
2023/08/13 11:23:11;;;;;;;4.55;1.48;;;;;;;21.40;66.32;101501.28;4970161;28;20027;-90